Time;durP1;ratioP1;P1;durP2;ratioP2;P2;SDS_P1;SDS_P2;PMS_P1;PMS_P2;Temp;Humidity;BMP_temperature;BMP_pressure;BME280_temperature;BME280_humidity;BME280_pressure;Samples;Min_cycle;Max_cycle;Signal;HPM_P1;HPM_P2
2022/08/26 00:01:35;;;;;;;11.40;6.10;;;;;;;;;;5014341;28;20827;-77
2022/08/26 00:04:00;;;;;;;12.57;7.15;;;;;;;;;;5063093;28;20116;-76
2022/08/26 00:06:26;;;;;;;17.67;6.55;;;;;;;;;;5000745;28;20034;-76
2022/08/26 00:08:52;;;;;;;15.02;6.75;;;;;;;;;;5012201;28;20542;-77
2022/08/26 00:11:17;;;;;;;12.75;6.90;;;;;;;;;;5058553;28;20206;-77
2022/08/26 00:13:43;;;;;;;16.65;7.32;;;;;;;;;;5029989;28;20029;-76
2022/08/26 00:16:09;;;;;;;16.67;6.60;;;;;;;;;;5028215;28;20044;-76
2022/08/26 00:18:35;;;;;;;13.60;6.72;;;;;;;;;;5025975;28;20105;-76
2022/08/26 00:21:00;;;;;;;11.43;6.80;;;;;;;;;;5031751;28;20036;-77
2022/08/26 00:23:26;;;;;;;10.55;6.45;;;;;;;;;;5011746;28;20384;-77
2022/08/26 00:25:52;;;;;;;10.23;6.80;;;;;;;;;;5002192;28;20037;-76
2022/08/26 00:28:17;;;;;;;10.02;6.18;;;;;;;;;;5059998;28;20044;-77
2022/08/26 00:30:46;;;;;;;16.15;6.63;;;;;;;;;;5029644;28;20042;-77
2022/08/26 00:33:12;;;;;;;11.90;6.45;;;;;;;;;;5020840;28;20072;-77
2022/08/26 00:35:37;;;;;;;10.52;6.00;;;;;;;;;;5059708;28;20045;-77
2022/08/26 00:38:03;;;;;;;13.55;7.05;;;;;;;;;;5028165;28;20033;-77
2022/08/26 00:40:32;;;;;;;11.05;5.88;;;;;;;;;;5029298;28;20040;-77
2022/08/26 00:42:58;;;;;;;16.23;6.53;;;;;;;;;;5034248;28;20473;-76
2022/08/26 00:45:24;;;;;;;11.98;6.70;;;;;;;;;;5047010;28;20095;-77
2022/08/26 00:47:53;;;;;;;16.15;6.68;;;;;;;;;;5029691;28;20548;-77
2022/08/26 00:50:22;;;;;;;11.05;6.50;;;;;;;;;;5026661;28;20057;-76
2022/08/26 00:52:49;;;;;;;15.30;6.75;;;;;;;;;;5003207;28;20219;-78
2022/08/26 00:55:19;;;;;;;14.57;7.05;;;;;;;;;;5006508;28;20486;-79
2022/08/26 00:57:45;;;;;;;11.00;6.10;;;;;;;;;;5047008;28;20033;-78
2022/08/26 01:00:17;;;;;;;11.68;5.75;;;;;;;;;;5064116;28;20040;-78
2022/08/26 01:02:43;;;;;;;10.90;6.03;;;;;;;;;;5060279;28;20392;-79
2022/08/26 01:05:10;;;;;;;16.23;7.20;;;;;;;;;;5026923;28;20038;-79
2022/08/26 01:07:35;;;;;;;11.50;5.87;;;;;;;;;;5026774;28;20090;-78
2022/08/26 01:10:04;;;;;;;12.45;5.72;;;;;;;;;;5016144;28;20276;-79
2022/08/26 01:12:32;;;;;;;12.52;5.97;;;;;;;;;;5030445;28;20041;-79
2022/08/26 01:14:58;;;;;;;16.67;6.20;;;;;;;;;;5050752;28;20073;-79
2022/08/26 01:17:24;;;;;;;15.35;6.45;;;;;;;;;;5021937;28;20061;-79
2022/08/26 01:19:52;;;;;;;13.38;6.30;;;;;;;;;;5016500;28;20040;-79
2022/08/26 01:22:37;;;;;;;14.48;6.32;;;;;;;;;;5064745;28;20374;-79
2022/08/26 01:25:03;;;;;;;13.30;6.28;;;;;;;;;;5032636;28;20037;-79
2022/08/26 01:27:31;;;;;;;13.05;5.90;;;;;;;;;;5049876;28;20026;-79
2022/08/26 01:29:57;;;;;;;13.35;6.95;;;;;;;;;;5059191;28;20033;-79
2022/08/26 01:32:24;;;;;;;14.07;6.32;;;;;;;;;;5027336;28;20433;-79
2022/08/26 01:34:50;;;;;;;15.57;6.40;;;;;;;;;;5047703;28;20042;-79
2022/08/26 01:37:22;;;;;;;14.20;6.13;;;;;;;;;;5050516;28;20076;-79
2022/08/26 01:39:49;;;;;;;10.90;6.05;;;;;;;;;;5067672;28;20033;-78
2022/08/26 01:42:15;;;;;;;;;;;;;;;;;;5020194;28;20049;-78
2022/08/26 01:45:05;;;;;;;18.58;6.18;;;;;;;;;;5017087;28;20319;-79
2022/08/26 01:47:32;;;;;;;14.63;6.20;;;;;;;;;;5020258;28;20037;-78
2022/08/26 01:50:04;;;;;;;15.77;6.80;;;;;;;;;;5019399;28;20033;-79
2022/08/26 01:52:30;;;;;;;11.70;6.97;;;;;;;;;;5062841;28;20030;-79
2022/08/26 01:54:56;;;;;;;13.57;6.68;;;;;;;;;;5004020;28;20044;-79
2022/08/26 01:57:22;;;;;;;15.15;6.38;;;;;;;;;;5063968;28;20040;-79
2022/08/26 01:59:49;;;;;;;16.52;6.88;;;;;;;;;;5026480;28;20112;-79
2022/08/26 02:02:14;;;;;;;14.57;6.70;;;;;;;;;;5064717;28;20037;-78
2022/08/26 02:04:47;;;;;;;12.35;6.63;;;;;;;;;;5013671;28;20033;-78
2022/08/26 02:07:13;;;;;;;11.18;6.05;;;;;;;;;;5046816;28;20044;-79
2022/08/26 02:09:40;;;;;;;16.80;6.57;;;;;;;;;;5032355;28;20056;-78
2022/08/26 02:12:06;;;;;;;14.25;6.82;;;;;;;;;;5061418;28;20435;-79
2022/08/26 02:14:41;;;;;;;12.88;6.50;;;;;;;;;;5018039;28;20040;-79
2022/08/26 02:17:08;;;;;;;14.35;6.70;;;;;;;;;;5025660;28;20033;-78
2022/08/26 02:19:36;;;;;;;14.27;6.72;;;;;;;;;;5050947;28;20047;-78
2022/08/26 02:22:05;;;;;;;14.88;6.53;;;;;;;;;;5021807;28;20303;-79
2022/08/26 02:24:50;;;;;;;12.57;6.80;;;;;;;;;;5015807;28;20040;-79
2022/08/26 02:27:18;;;;;;;12.68;6.60;;;;;;;;;;5034225;28;20508;-78
2022/08/26 02:29:47;;;;;;;15.50;6.75;;;;;;;;;;5035241;28;20030;-79
2022/08/26 02:32:12;;;;;;;14.18;6.63;;;;;;;;;;5061151;28;20515;-79
2022/08/26 02:34:38;;;;;;;13.77;7.00;;;;;;;;;;5032608;28;20033;-79
2022/08/26 02:37:06;;;;;;;16.55;6.95;;;;;;;;;;5061643;28;20416;-78
2022/08/26 02:39:33;;;;;;;11.40;6.25;;;;;;;;;;5062322;28;20038;-79
2022/08/26 02:41:59;;;;;;;;;;;;;;;;;;5034276;28;20099;-78
2022/08/26 02:44:25;;;;;;;13.45;6.68;;;;;;;;;;5019095;28;20643;-79
2022/08/26 02:46:51;;;;;;;18.20;7.45;;;;;;;;;;5030992;28;20072;-78
2022/08/26 02:49:18;;;;;;;17.27;7.15;;;;;;;;;;5034357;28;20500;-79
2022/08/26 02:51:43;;;;;;;15.43;7.80;;;;;;;;;;5029723;28;20044;-79
2022/08/26 02:54:09;;;;;;;19.13;7.25;;;;;;;;;;5014275;28;20101;-79
2022/08/26 02:56:34;;;;;;;17.20;7.38;;;;;;;;;;5012243;28;20042;-79
2022/08/26 02:59:00;;;;;;;12.00;6.80;;;;;;;;;;5030388;28;20052;-79
2022/08/26 03:01:27;;;;;;;16.50;7.65;;;;;;;;;;5012223;28;20136;-79
2022/08/26 03:03:53;;;;;;;15.68;7.25;;;;;;;;;;5029595;28;20056;-79
2022/08/26 03:06:19;;;;;;;17.00;7.63;;;;;;;;;;5020903;28;20124;-79
2022/08/26 03:08:45;;;;;;;16.85;7.35;;;;;;;;;;5015420;28;20183;-79
2022/08/26 03:11:11;;;;;;;14.23;7.15;;;;;;;;;;5016123;28;20036;-79
2022/08/26 03:13:37;;;;;;;20.48;8.10;;;;;;;;;;5031405;28;20083;-79
2022/08/26 03:16:03;;;;;;;16.42;7.75;;;;;;;;;;5035317;28;20110;-79
2022/08/26 03:18:28;;;;;;;17.77;8.32;;;;;;;;;;5046812;28;20033;-79
2022/08/26 03:20:54;;;;;;;13.70;7.32;;;;;;;;;;5050264;28;20044;-79
2022/08/26 03:23:19;;;;;;;16.52;7.72;;;;;;;;;;5031963;28;20032;-79
2022/08/26 03:25:51;;;;;;;14.80;7.00;;;;;;;;;;5063317;28;20388;-79
2022/08/26 03:28:17;;;;;;;18.23;7.90;;;;;;;;;;5017250;28;20033;-79
2022/08/26 03:30:43;;;;;;;17.45;7.20;;;;;;;;;;5030960;28;20044;-79
2022/08/26 03:33:10;;;;;;;15.77;7.60;;;;;;;;;;5032435;28;20041;-79
2022/08/26 03:35:37;;;;;;;19.58;7.90;;;;;;;;;;5029226;28;20823;-78
2022/08/26 03:38:03;;;;;;;20.02;7.88;;;;;;;;;;5066655;28;20068;-79
2022/08/26 03:40:30;;;;;;;16.60;7.72;;;;;;;;;;5016789;28;20438;-79
2022/08/26 03:42:55;;;;;;;12.07;7.40;;;;;;;;;;5031818;28;20154;-79
2022/08/26 03:45:20;;;;;;;13.15;7.38;;;;;;;;;;5017763;28;20128;-79
2022/08/26 03:47:46;;;;;;;17.20;7.80;;;;;;;;;;5013583;28;20628;-79
2022/08/26 03:50:14;;;;;;;17.10;8.18;;;;;;;;;;5027459;28;20053;-79
2022/08/26 03:52:40;;;;;;;13.98;7.80;;;;;;;;;;5060185;28;20048;-79
2022/08/26 03:55:07;;;;;;;18.88;7.30;;;;;;;;;;5030740;28;20036;-79
2022/08/26 03:57:32;;;;;;;20.60;7.60;;;;;;;;;;5024605;28;20033;-79
2022/08/26 03:59:57;;;;;;;17.15;8.20;;;;;;;;;;5014355;28;20550;-79
2022/08/26 04:02:23;;;;;;;16.23;7.70;;;;;;;;;;5002614;28;20045;-79
2022/08/26 04:04:49;;;;;;;12.93;8.27;;;;;;;;;;5031684;28;20094;-79
2022/08/26 04:07:14;;;;;;;19.45;8.75;;;;;;;;;;5064981;28;20075;-79
2022/08/26 04:09:39;;;;;;;22.05;8.68;;;;;;;;;;5031342;28;20120;-79
2022/08/26 04:12:05;;;;;;;18.65;8.27;;;;;;;;;;5062984;28;20567;-78
2022/08/26 04:14:31;;;;;;;14.13;7.93;;;;;;;;;;5032288;28;20040;-78
2022/08/26 04:16:57;;;;;;;18.30;8.40;;;;;;;;;;5032230;28;20029;-78
2022/08/26 04:19:23;;;;;;;16.67;7.85;;;;;;;;;;5016830;28;20453;-80
2022/08/26 04:21:52;;;;;;;15.88;8.27;;;;;;;;;;5029250;28;20024;-79
2022/08/26 04:24:20;;;;;;;18.75;7.95;;;;;;;;;;5030499;28;20532;-79
2022/08/26 04:26:46;;;;;;;16.50;7.82;;;;;;;;;;5062425;28;20045;-79
2022/08/26 04:29:19;;;;;;;19.73;8.88;;;;;;;;;;5031102;28;20504;-79
2022/08/26 04:31:46;;;;;;;15.60;8.45;;;;;;;;;;5028670;28;20408;-79
2022/08/26 04:34:12;;;;;;;14.70;7.85;;;;;;;;;;5046400;28;20053;-79
2022/08/26 04:36:38;;;;;;;19.77;8.23;;;;;;;;;;5060754;28;20033;-80
2022/08/26 04:39:04;;;;;;;14.07;7.88;;;;;;;;;;5013963;28;20042;-78
2022/08/26 04:41:30;;;;;;;19.27;8.43;;;;;;;;;;5061956;28;20079;-79
2022/08/26 04:43:55;;;;;;;16.92;8.27;;;;;;;;;;5028348;28;20088;-79
2022/08/26 04:46:23;;;;;;;20.02;8.10;;;;;;;;;;5061250;28;20045;-78
2022/08/26 04:48:50;;;;;;;17.27;8.35;;;;;;;;;;5014453;28;20026;-79
2022/08/26 04:51:15;;;;;;;;;;;;;;;;;;5015413;28;20501;-79
2022/08/26 04:53:41;;;;;;;19.88;8.48;;;;;;;;;;5006138;28;19971;-80
2022/08/26 04:56:07;;;;;;;26.88;8.73;;;;;;;;;;5010807;28;20041;-79
2022/08/26 04:58:32;;;;;;;15.98;7.65;;;;;;;;;;5028623;28;20049;-79
2022/08/26 05:00:58;;;;;;;16.88;8.20;;;;;;;;;;5043175;28;20091;-80
2022/08/26 05:03:24;;;;;;;16.45;8.18;;;;;;;;;;5014044;28;20472;-80
2022/08/26 05:05:52;;;;;;;19.52;8.43;;;;;;;;;;5018854;28;20500;-79
2022/08/26 05:08:18;;;;;;;19.65;8.48;;;;;;;;;;5043783;28;20045;-80
2022/08/26 05:10:47;;;;;;;17.95;7.85;;;;;;;;;;5027548;28;20562;-79
2022/08/26 05:13:13;;;;;;;19.58;8.35;;;;;;;;;;5026977;28;20504;-79
2022/08/26 05:15:39;;;;;;;19.45;8.52;;;;;;;;;;5049047;28;20048;-79
2022/08/26 05:18:05;;;;;;;18.70;7.90;;;;;;;;;;5018279;28;20045;-79
2022/08/26 05:20:31;;;;;;;16.80;8.07;;;;;;;;;;5027780;28;20029;-79
2022/08/26 05:22:59;;;;;;;20.20;8.52;;;;;;;;;;5025224;28;20413;-79
2022/08/26 05:25:26;;;;;;;15.73;8.13;;;;;;;;;;5024310;28;20060;-80
2022/08/26 05:27:52;;;;;;;15.20;8.05;;;;;;;;;;5029228;28;20448;-81
2022/08/26 05:30:17;;;;;;;19.98;8.50;;;;;;;;;;5028395;28;20037;-78
2022/08/26 05:32:43;;;;;;;19.60;7.88;;;;;;;;;;5026159;28;20038;-78
2022/08/26 05:35:08;;;;;;;17.42;8.13;;;;;;;;;;5028225;28;20095;-79
2022/08/26 05:37:36;;;;;;;13.85;7.20;;;;;;;;;;5027178;28;20132;-79
2022/08/26 05:40:02;;;;;;;;;;;;;;;;;;5031277;28;20041;-82
2022/08/26 05:42:27;;;;;;;16.90;7.83;;;;;;;;;;5011448;28;19917;-80
2022/08/26 05:44:53;;;;;;;15.55;7.90;;;;;;;;;;5013101;28;20088;-80
2022/08/26 05:47:18;;;;;;;14.35;7.57;;;;;;;;;;5011291;28;20041;-81
2022/08/26 05:49:44;;;;;;;15.95;7.85;;;;;;;;;;5027515;28;20041;-80
2022/08/26 05:52:09;;;;;;;17.75;7.53;;;;;;;;;;5013323;28;20044;-80
2022/08/26 05:54:38;;;;;;;13.82;8.30;;;;;;;;;;5041728;28;20125;-79
2022/08/26 05:57:03;;;;;;;16.17;7.28;;;;;;;;;;5058762;28;20447;-78
2022/08/26 05:59:29;;;;;;;15.57;7.25;;;;;;;;;;5030030;28;20041;-79
2022/08/26 06:01:54;;;;;;;17.40;7.80;;;;;;;;;;5046625;28;20065;-79
2022/08/26 06:04:19;;;;;;;14.40;7.53;;;;;;;;;;5030987;28;20033;-79
2022/08/26 06:06:45;;;;;;;19.45;8.13;;;;;;;;;;5030649;28;20124;-79
2022/08/26 06:09:10;;;;;;;13.40;6.97;;;;;;;;;;5030102;28;20734;-80
2022/08/26 06:11:36;;;;;;;15.57;7.72;;;;;;;;;;5026366;28;20033;-80
2022/08/26 06:14:04;;;;;;;15.95;8.05;;;;;;;;;;5029005;28;20044;-80
2022/08/26 06:16:33;;;;;;;14.90;7.32;;;;;;;;;;5015807;28;20096;-80
2022/08/26 06:18:58;;;;;;;15.15;7.60;;;;;;;;;;5060874;28;20037;-79
2022/08/26 06:21:30;;;;;;;14.65;7.60;;;;;;;;;;5053392;28;20025;-79
2022/08/26 06:26:46;;;;;;;15.77;7.20;;;;;;;;;;5029746;28;20040;-80
2022/08/26 06:29:12;;;;;;;16.73;7.10;;;;;;;;;;5017569;28;20409;-80
2022/08/26 06:31:37;;;;;;;17.50;7.35;;;;;;;;;;5049394;28;20041;-79
2022/08/26 06:34:03;;;;;;;19.80;7.57;;;;;;;;;;5033118;28;20038;-79
2022/08/26 06:36:29;;;;;;;19.15;7.82;;;;;;;;;;5020172;28;20034;-79
2022/08/26 06:38:59;;;;;;;17.25;6.70;;;;;;;;;;5047996;28;20620;-79
2022/08/26 06:41:24;;;;;;;18.85;6.68;;;;;;;;;;5043100;28;20049;-80
2022/08/26 06:43:50;;;;;;;17.80;6.40;;;;;;;;;;5027951;28;20428;-79
2022/08/26 06:46:17;;;;;;;19.50;7.10;;;;;;;;;;5014282;28;20060;-79
2022/08/26 06:48:43;;;;;;;21.80;7.80;;;;;;;;;;5012108;28;20408;-80
2022/08/26 06:51:12;;;;;;;16.05;6.75;;;;;;;;;;5044410;28;20053;-80
2022/08/26 06:53:38;;;;;;;15.43;6.80;;;;;;;;;;5027965;28;20069;-79
2022/08/26 06:56:05;;;;;;;17.30;6.43;;;;;;;;;;5031655;28;20646;-78
2022/08/26 06:58:32;;;;;;;16.90;6.28;;;;;;;;;;5064460;28;20040;-80
2022/08/26 07:00:57;;;;;;;17.03;6.73;;;;;;;;;;5028090;28;20045;-79
2022/08/26 07:03:23;;;;;;;17.77;6.05;;;;;;;;;;5030647;28;20324;-80
2022/08/26 07:05:48;;;;;;;14.57;5.75;;;;;;;;;;5025651;28;20041;-80
2022/08/26 07:08:15;;;;;;;15.52;5.80;;;;;;;;;;5062198;28;20045;-80
2022/08/26 07:10:41;;;;;;;18.40;5.97;;;;;;;;;;5047884;28;20080;-80
2022/08/26 07:13:06;;;;;;;15.90;5.57;;;;;;;;;;5029360;28;20037;-79
2022/08/26 07:15:34;;;;;;;18.75;6.07;;;;;;;;;;5045156;28;20044;-80
2022/08/26 07:18:00;;;;;;;16.52;5.53;;;;;;;;;;5032685;28;20047;-80
2022/08/26 07:20:25;;;;;;;19.10;5.68;;;;;;;;;;5049802;28;20037;-80
2022/08/26 07:22:51;;;;;;;14.60;5.47;;;;;;;;;;5063381;28;20037;-80
2022/08/26 07:25:16;;;;;;;16.95;4.80;;;;;;;;;;5047884;28;20037;-80
2022/08/26 07:27:42;;;;;;;17.73;4.72;;;;;;;;;;5031075;28;20033;-80
2022/08/26 07:30:08;;;;;;;19.75;5.60;;;;;;;;;;5012488;28;20497;-80
2022/08/26 07:32:34;;;;;;;13.63;4.78;;;;;;;;;;5028401;28;20037;-80
2022/08/26 07:34:59;;;;;;;15.07;4.80;;;;;;;;;;5060083;28;20489;-81
2022/08/26 07:37:24;;;;;;;18.83;5.43;;;;;;;;;;5029545;28;20037;-81
2022/08/26 07:39:50;;;;;;;16.83;4.97;;;;;;;;;;5044285;28;20504;-81
2022/08/26 07:42:16;;;;;;;14.77;4.80;;;;;;;;;;5042885;28;20554;-80
2022/08/26 07:44:42;;;;;;;13.23;5.45;;;;;;;;;;5027626;28;20488;-80
2022/08/26 07:47:09;;;;;;;12.45;4.75;;;;;;;;;;5029171;28;20061;-80
2022/08/26 07:49:36;;;;;;;12.48;4.95;;;;;;;;;;5028559;28;20045;-80
2022/08/26 07:52:03;;;;;;;14.45;4.40;;;;;;;;;;5027094;28;20617;-80
2022/08/26 07:54:28;;;;;;;13.87;4.37;;;;;;;;;;5027526;28;20477;-81
2022/08/26 07:56:54;;;;;;;16.38;5.32;;;;;;;;;;5029574;28;20048;-81
2022/08/26 07:59:19;;;;;;;14.35;4.70;;;;;;;;;;5048359;28;20050;-81
2022/08/26 08:01:45;;;;;;;14.40;4.57;;;;;;;;;;5044627;28;20026;-79
2022/08/26 08:04:12;;;;;;;12.48;4.68;;;;;;;;;;5013550;28;20080;-81
2022/08/26 08:06:38;;;;;;;15.98;4.63;;;;;;;;;;5032358;28;20029;-80
2022/08/26 08:09:05;;;;;;;18.55;4.90;;;;;;;;;;5028724;28;20052;-80
2022/08/26 08:11:31;;;;;;;14.80;4.47;;;;;;;;;;5045173;28;20495;-81
2022/08/26 08:13:57;;;;;;;14.38;4.82;;;;;;;;;;5060009;28;20025;-81
2022/08/26 08:16:24;;;;;;;12.98;4.38;;;;;;;;;;5049410;28;20029;-81
2022/08/26 08:18:49;;;;;;;17.67;4.80;;;;;;;;;;5028958;28;20497;-79
2022/08/26 08:21:14;;;;;;;12.50;4.82;;;;;;;;;;5031662;28;20304;-80
2022/08/26 08:23:40;;;;;;;12.85;4.38;;;;;;;;;;5014606;28;20090;-81
2022/08/26 08:26:07;;;;;;;18.00;5.05;;;;;;;;;;5027896;28;20401;-80
2022/08/26 08:28:33;;;;;;;12.15;4.18;;;;;;;;;;5014372;28;20128;-80
2022/08/26 08:30:58;;;;;;;13.30;4.65;;;;;;;;;;5045050;28;20132;-81
2022/08/26 08:33:24;;;;;;;11.80;4.40;;;;;;;;;;5028065;28;20040;-80
2022/08/26 08:35:50;;;;;;;11.48;4.40;;;;;;;;;;5025445;28;20033;-80
2022/08/26 08:38:15;;;;;;;9.48;4.32;;;;;;;;;;5029772;28;20497;-80
2022/08/26 08:40:43;;;;;;;13.98;4.25;;;;;;;;;;5044529;28;20045;-81
2022/08/26 08:43:14;;;;;;;16.65;4.85;;;;;;;;;;5012714;28;20059;-80
2022/08/26 08:45:45;;;;;;;14.15;5.22;;;;;;;;;;5045813;28;20069;-81
2022/08/26 08:48:26;;;;;;;18.23;4.85;;;;;;;;;;5028437;28;20117;-81
2022/08/26 08:50:53;;;;;;;15.25;4.85;;;;;;;;;;5014308;28;20128;-81
2022/08/26 08:53:29;;;;;;;;;;;;;;;;;;5044822;28;20856;-81
2022/08/26 08:56:30;;;;;;;14.60;4.20;;;;;;;;;;5006892;28;19917;-80
2022/08/26 08:59:16;;;;;;;14.15;4.10;;;;;;;;;;5012554;28;20099;-81
2022/08/26 09:01:50;;;;;;;17.17;4.93;;;;;;;;;;5015071;28;20030;-80
2022/08/26 09:04:44;;;;;;;12.73;4.43;;;;;;;;;;5028005;28;20037;-81
2022/08/26 09:07:17;;;;;;;15.52;4.90;;;;;;;;;;5056902;28;20152;-81
2022/08/26 09:09:56;;;;;;;12.60;4.72;;;;;;;;;;5044196;28;20506;-81
2022/08/26 09:12:29;;;;;;;10.98;3.90;;;;;;;;;;5059934;28;20041;-81
2022/08/26 09:15:07;;;;;;;18.63;4.93;;;;;;;;;;5011366;28;20451;-80
2022/08/26 09:17:47;;;;;;;13.68;4.00;;;;;;;;;;5046365;28;20037;-83
2022/08/26 09:20:34;;;;;;;16.15;4.30;;;;;;;;;;5057989;28;20044;-80
2022/08/26 09:23:00;;;;;;;15.70;3.60;;;;;;;;;;5025963;28;20037;-80
2022/08/26 09:25:25;;;;;;;11.60;3.75;;;;;;;;;;5027009;28;20041;-81
2022/08/26 09:27:52;;;;;;;13.95;3.63;;;;;;;;;;5024330;28;20068;-80
2022/08/26 09:30:25;;;;;;;14.25;4.35;;;;;;;;;;5029585;28;20370;-81
2022/08/26 09:33:05;;;;;;;17.88;3.85;;;;;;;;;;5025072;28;20040;-81
2022/08/26 09:35:45;;;;;;;18.25;3.60;;;;;;;;;;5000921;28;20045;-81
2022/08/26 09:38:32;;;;;;;15.77;3.72;;;;;;;;;;5033150;28;20048;-81
2022/08/26 09:40:58;;;;;;;;;;;;;;;;;;5029566;28;20054;-80
2022/08/26 09:43:24;;;;;;;16.90;4.32;;;;;;;;;;5033460;28;20384;-81
2022/08/26 09:45:55;;;;;;;15.52;3.80;;;;;;;;;;5029618;28;20053;-79
2022/08/26 09:48:30;;;;;;;11.60;3.25;;;;;;;;;;5031461;28;20480;-80
2022/08/26 09:50:58;;;;;;;12.32;3.65;;;;;;;;;;5049505;28;20044;-80
2022/08/26 09:53:29;;;;;;;11.88;3.60;;;;;;;;;;5060511;28;20040;-81
2022/08/26 09:56:13;;;;;;;17.10;4.15;;;;;;;;;;5050492;28;20045;-81
2022/08/26 09:58:40;;;;;;;16.27;3.58;;;;;;;;;;5047953;28;20068;-82
2022/08/26 10:01:08;;;;;;;12.25;3.50;;;;;;;;;;5001914;28;20061;-81
2022/08/26 10:03:36;;;;;;;15.70;3.40;;;;;;;;;;5047594;28;20137;-81
2022/08/26 10:06:03;;;;;;;14.55;4.15;;;;;;;;;;5046003;28;20087;-80
2022/08/26 10:08:33;;;;;;;;;;;;;;;;;;5033147;28;20033;-81
2022/08/26 10:11:01;;;;;;;18.80;3.92;;;;;;;;;;5013320;28;19921;-80
2022/08/26 10:13:41;;;;;;;15.57;3.60;;;;;;;;;;5066501;28;20052;-82
2022/08/26 10:16:36;;;;;;;11.85;3.78;;;;;;;;;;5032987;28;20105;-81
2022/08/26 10:19:08;;;;;;;13.20;3.90;;;;;;;;;;5035454;28;20068;-81
2022/08/26 10:21:38;;;;;;;17.40;4.07;;;;;;;;;;5030699;28;20735;-80
2022/08/26 10:24:06;;;;;;;15.23;4.03;;;;;;;;;;5056592;28;20045;-80
2022/08/26 10:26:39;;;;;;;19.15;4.57;;;;;;;;;;5061649;28;20029;-81
2022/08/26 10:29:20;;;;;;;16.55;4.10;;;;;;;;;;5059140;28;20037;-79
2022/08/26 10:31:50;;;;;;;14.30;3.97;;;;;;;;;;5033556;28;20106;-81
2022/08/26 10:34:16;;;;;;;18.95;5.18;;;;;;;;;;5029420;28;20045;-81
2022/08/26 10:36:49;;;;;;;18.10;4.43;;;;;;;;;;5048766;28;20504;-81
2022/08/26 10:39:34;;;;;;;14.20;3.80;;;;;;;;;;5044803;28;20497;-81
2022/08/26 10:42:07;;;;;;;12.85;3.83;;;;;;;;;;5030234;28;20550;-80
2022/08/26 10:44:35;;;;;;;15.15;4.10;;;;;;;;;;5009830;28;20034;-81
2022/08/26 10:47:08;;;;;;;12.38;3.85;;;;;;;;;;5027525;28;20034;-80
2022/08/26 10:49:33;;;;;;;13.45;4.40;;;;;;;;;;5043821;28;20493;-81
2022/08/26 10:52:33;;;;;;;16.55;4.85;;;;;;;;;;5015628;28;20042;-81
2022/08/26 10:55:10;;;;;;;11.90;4.22;;;;;;;;;;5014969;28;20507;-82
2022/08/26 10:57:54;;;;;;;14.70;4.38;;;;;;;;;;5000245;28;20037;-81
2022/08/26 11:03:58;;;;;;;15.20;4.32;;;;;;;;;;5008642;28;20061;-81
2022/08/26 11:06:27;;;;;;;14.63;4.95;;;;;;;;;;4993914;28;20037;-80
2022/08/26 11:08:57;;;;;;;16.48;4.55;;;;;;;;;;5038448;28;20034;-81
2022/08/26 11:11:44;;;;;;;17.98;4.22;;;;;;;;;;5011412;28;20441;-82
2022/08/26 11:14:18;;;;;;;10.43;4.35;;;;;;;;;;5042238;28;20045;-81
2022/08/26 11:16:46;;;;;;;17.15;4.30;;;;;;;;;;5032434;28;20037;-81
2022/08/26 11:19:34;;;;;;;19.88;4.72;;;;;;;;;;5030148;28;20045;-82
2022/08/26 11:22:10;;;;;;;12.50;4.32;;;;;;;;;;5023717;28;20034;-81
2022/08/26 11:24:46;;;;;;;10.20;4.23;;;;;;;;;;5013778;28;20180;-81
2022/08/26 11:27:40;;;;;;;13.35;4.47;;;;;;;;;;5007684;28;20034;-81
2022/08/26 11:30:11;;;;;;;15.13;4.95;;;;;;;;;;5009076;28;20584;-79
2022/08/26 11:32:37;;;;;;;15.68;4.88;;;;;;;;;;5008340;28;20046;-82
2022/08/26 11:35:12;;;;;;;13.32;4.25;;;;;;;;;;5012586;28;20048;-81
2022/08/26 11:37:50;;;;;;;15.60;4.60;;;;;;;;;;5009487;28;20129;-81
2022/08/26 11:40:21;;;;;;;18.80;5.45;;;;;;;;;;5037117;28;20042;-81
2022/08/26 11:42:48;;;;;;;16.70;5.60;;;;;;;;;;5010974;28;20072;-81
2022/08/26 11:45:16;;;;;;;13.80;4.90;;;;;;;;;;5026460;28;20140;-81
2022/08/26 11:47:42;;;;;;;12.43;3.40;;;;;;;;;;5011682;28;20038;-84
2022/08/26 11:50:14;;;;;;;11.52;2.90;;;;;;;;;;4990316;28;20088;-83
2022/08/26 11:52:39;;;;;;;7.43;2.40;;;;;;;;;;5025116;28;20042;-82
2022/08/26 11:55:11;;;;;;;8.05;2.85;;;;;;;;;;4993808;28;20050;-81
2022/08/26 11:57:49;;;;;;;10.05;3.17;;;;;;;;;;4992933;28;20833;-82
2022/08/26 12:00:27;;;;;;;9.57;3.28;;;;;;;;;;5011607;28;20500;-82
2022/08/26 12:02:54;;;;;;;8.18;2.67;;;;;;;;;;5019359;28;20037;-82
2022/08/26 12:05:24;;;;;;;8.52;3.17;;;;;;;;;;5048053;28;20071;-82
2022/08/26 12:07:50;;;;;;;6.93;2.50;;;;;;;;;;5032472;28;20065;-81
2022/08/26 12:10:31;;;;;;;10.48;3.85;;;;;;;;;;5043046;28;20044;-82
2022/08/26 12:13:01;;;;;;;6.90;2.30;;;;;;;;;;5029568;28;20049;-82
2022/08/26 12:15:28;;;;;;;10.07;3.00;;;;;;;;;;5023881;28;20116;-82
2022/08/26 12:17:53;;;;;;;7.65;2.83;;;;;;;;;;5023981;28;20044;-82
2022/08/26 12:20:28;;;;;;;6.97;2.55;;;;;;;;;;5011119;28;20029;-81
2022/08/26 12:22:55;;;;;;;8.25;2.78;;;;;;;;;;5026691;28;21485;-82
2022/08/26 12:25:22;;;;;;;6.60;2.30;;;;;;;;;;5011386;28;20065;-82
2022/08/26 12:27:47;;;;;;;6.78;2.22;;;;;;;;;;5009543;28;20033;-81
2022/08/26 12:30:16;;;;;;;4.30;1.83;;;;;;;;;;5048488;28;20075;-83
2022/08/26 12:32:47;;;;;;;4.55;2.22;;;;;;;;;;5028077;28;20128;-81
2022/08/26 12:35:15;;;;;;;8.45;2.65;;;;;;;;;;5059642;28;20033;-80
2022/08/26 12:37:42;;;;;;;5.65;2.40;;;;;;;;;;5001120;28;20045;-80
2022/08/26 12:40:29;;;;;;;5.03;2.63;;;;;;;;;;5012545;28;20041;-82
2022/08/26 12:42:57;;;;;;;6.72;2.50;;;;;;;;;;5030935;28;20547;-81
2022/08/26 12:45:32;;;;;;;4.50;1.90;;;;;;;;;;5027975;28;20472;-81
2022/08/26 12:48:10;;;;;;;7.28;2.53;;;;;;;;;;5045167;28;20396;-81
2022/08/26 12:50:37;;;;;;;4.75;2.35;;;;;;;;;;4999418;28;20160;-80
2022/08/26 12:53:09;;;;;;;7.20;2.53;;;;;;;;;;5011507;28;20045;-81
2022/08/26 12:55:41;;;;;;;6.82;3.00;;;;;;;;;;5057006;28;20758;-81
2022/08/26 12:58:21;;;;;;;8.25;2.83;;;;;;;;;;5025903;28;20040;-80
2022/08/26 13:01:07;;;;;;;8.88;2.85;;;;;;;;;;5026164;28;20570;-80
2022/08/26 13:03:33;;;;;;;8.00;3.17;;;;;;;;;;5014955;28;20034;-81
2022/08/26 13:06:33;;;;;;;8.13;3.60;;;;;;;;;;5007317;28;20045;-79
2022/08/26 13:09:08;;;;;;;8.25;3.40;;;;;;;;;;5039348;28;20344;-80
2022/08/26 13:11:34;;;;;;;6.78;3.75;;;;;;;;;;5013298;28;20088;-80
2022/08/26 13:14:06;;;;;;;6.53;3.30;;;;;;;;;;5046987;28;20059;-80
2022/08/26 13:16:32;;;;;;;6.25;3.25;;;;;;;;;;5013827;28;20400;-80
2022/08/26 13:19:00;;;;;;;7.40;3.42;;;;;;;;;;5012050;28;20056;-80
2022/08/26 13:21:28;;;;;;;6.35;3.58;;;;;;;;;;4993667;28;20050;-80
2022/08/26 13:23:54;;;;;;;10.93;3.65;;;;;;;;;;5042642;28;20042;-79
2022/08/26 13:26:20;;;;;;;8.38;3.55;;;;;;;;;;5039376;28;20072;-79
2022/08/26 13:28:47;;;;;;;8.70;4.00;;;;;;;;;;4972325;28;20026;-80
2022/08/26 13:31:13;;;;;;;7.53;3.80;;;;;;;;;;5013023;28;20033;-80
2022/08/26 13:33:40;;;;;;;8.73;4.97;;;;;;;;;;4997840;28;20402;-80
2022/08/26 13:36:05;;;;;;;11.07;4.53;;;;;;;;;;5010448;28;20414;-80
2022/08/26 13:38:31;;;;;;;8.95;4.90;;;;;;;;;;5013063;28;20085;-80
2022/08/26 13:40:58;;;;;;;8.95;5.13;;;;;;;;;;5015538;28;20490;-79
2022/08/26 13:43:24;;;;;;;9.30;4.72;;;;;;;;;;5012279;28;20043;-81
2022/08/26 13:45:50;;;;;;;10.77;5.57;;;;;;;;;;5026295;28;20030;-80
2022/08/26 13:48:17;;;;;;;11.82;6.38;;;;;;;;;;5030736;28;20887;-80
2022/08/26 13:50:43;;;;;;;13.30;5.93;;;;;;;;;;5030542;28;20051;-79
2022/08/26 13:53:09;;;;;;;11.18;6.47;;;;;;;;;;5047528;28;20041;-80
2022/08/26 13:55:37;;;;;;;13.27;6.10;;;;;;;;;;5012962;28;20113;-79
2022/08/26 13:58:02;;;;;;;12.15;6.28;;;;;;;;;;4999799;28;20049;-80
2022/08/26 14:00:28;;;;;;;9.65;5.93;;;;;;;;;;5029480;28;20085;-81
2022/08/26 14:02:53;;;;;;;12.52;6.38;;;;;;;;;;5043750;28;20033;-81
2022/08/26 14:05:18;;;;;;;12.38;6.60;;;;;;;;;;5015303;28;20091;-80
2022/08/26 14:07:44;;;;;;;14.98;6.38;;;;;;;;;;5019802;28;20424;-81
2022/08/26 14:10:09;;;;;;;10.20;6.53;;;;;;;;;;5003038;28;20088;-81
2022/08/26 14:12:38;;;;;;;10.88;6.10;;;;;;;;;;5034238;28;20866;-80
2022/08/26 14:15:05;;;;;;;11.00;5.93;;;;;;;;;;4994968;28;20048;-80
2022/08/26 14:17:31;;;;;;;10.73;5.47;;;;;;;;;;5014955;28;20508;-81
2022/08/26 14:19:56;;;;;;;11.13;6.28;;;;;;;;;;5010036;28;20045;-81
2022/08/26 14:22:22;;;;;;;12.40;6.63;;;;;;;;;;5028603;28;20033;-81
2022/08/26 14:24:49;;;;;;;16.98;8.13;;;;;;;;;;5012682;28;20044;-88
2022/08/26 14:27:14;;;;;;;13.35;6.65;;;;;;;;;;4996880;28;20045;-88
2022/08/26 14:29:40;;;;;;;15.88;7.13;;;;;;;;;;5007585;28;20037;-89
2022/08/26 14:32:28;;;;;;;15.73;7.38;;;;;;;;;;5023030;28;20057;-87
2022/08/26 14:34:55;;;;;;;12.07;7.15;;;;;;;;;;5017641;28;20036;-88
2022/08/26 14:37:23;;;;;;;16.67;7.82;;;;;;;;;;4977454;28;20116;-90
2022/08/26 14:40:19;;;;;;;;;;;;;;;;;;;;;
2022/08/26 14:43:08;;;;;;;13.55;7.55;;;;;;;;;;5024917;28;20528;-90
2022/08/26 14:45:38;;;;;;;13.85;8.52;;;;;;;;;;4967258;28;20041;-88
2022/08/26 14:48:03;;;;;;;15.95;7.85;;;;;;;;;;5008134;28;20046;-89
2022/08/26 14:51:00;;;;;;;11.15;7.70;;;;;;;;;;5010611;28;20040;-89
2022/08/26 14:56:15;;;;;;;10.13;6.88;;;;;;;;;;4953967;28;20060;-88